CZBF

Bathurst Airport

Bathurst, New Brunswick, Canada
METAR CZBF 160000Z AUTO 27003KT 230V010 9SM CLR 01/M04 A3009 RMK SLP196
Observed Flight Rules
Dec-16 @ 00:00 UTC (an hour ago) Visual Flight Rules
Wind Visibility Clouds
270° at 3 knots 9 miles
  • Clear skies
Temperatures Readings
Current 1°C / 34°F
Dewpoint -4°C / 25°F
Humidity 70%
Altimeter 30.09" Hg
Pressure 1019.6 hPa
Elevation 59
METAR CZBF 160000Z AUTO 27003KT 230V010 9SM CLR 01/M04 A3009 RMK SLP196
Observed Flight Rules
Dec-16 @ 00:00 UTC
(an hour ago)
VFR
Wind Visibility
270° at 3 knots 9 miles
Clouds
  • Clear skies
Temperature Dewpoint
1°C / 34°F -4°C / 25°F
Humidity Altimeter Pressure
70% 30.09" Hg 1019.6 hPa